sensor_id;sensor_type;location;lat;lon;timestamp;temperature;humidity
15815;DHT22;8008;50.024;8.172;2023-07-29T03:02:59;19.00;99.90
15815;DHT22;8008;50.024;8.172;2023-07-29T03:05:27;19.10;99.90
15815;DHT22;8008;50.024;8.172;2023-07-29T03:07:57;19.00;99.90
15815;DHT22;8008;50.024;8.172;2023-07-29T03:10:25;19.00;99.90
15815;DHT22;8008;50.024;8.172;2023-07-29T03:12:54;19.00;99.90
15815;DHT22;8008;50.024;8.172;2023-07-29T03:15:23;19.00;99.90
15815;DHT22;8008;50.024;8.172;2023-07-29T03:17:52;19.00;99.90
15815;DHT22;8008;50.024;8.172;2023-07-29T03:20:22;19.00;99.90
15815;DHT22;8008;50.024;8.172;2023-07-29T03:22:50;19.00;99.90
15815;DHT22;8008;50.024;8.172;2023-07-29T03:25:19;19.00;99.90
15815;DHT22;8008;50.024;8.172;2023-07-29T03:27:47;19.00;99.90
15815;DHT22;8008;50.024;8.172;2023-07-29T03:30:19;19.00;99.90
15815;DHT22;8008;50.024;8.172;2023-07-29T03:32:50;19.00;99.90
15815;DHT22;8008;50.024;8.172;2023-07-29T03:35:18;19.00;99.90
15815;DHT22;8008;50.024;8.172;2023-07-29T03:37:47;19.00;99.90
15815;DHT22;8008;50.024;8.172;2023-07-29T03:40:15;19.00;99.90
15815;DHT22;8008;50.024;8.172;2023-07-29T03:42:44;19.10;99.90
15815;DHT22;8008;50.024;8.172;2023-07-29T03:45:11;19.10;99.90
15815;DHT22;8008;50.024;8.172;2023-07-29T03:47:39;19.00;99.90
15815;DHT22;8008;50.024;8.172;2023-07-29T03:50:08;19.10;99.90
15815;DHT22;8008;50.024;8.172;2023-07-29T03:52:36;19.10;99.90
15815;DHT22;8008;50.024;8.172;2023-07-29T03:55:06;19.10;99.90
15815;DHT22;8008;50.024;8.172;2023-07-29T03:57:34;19.10;99.90
15815;DHT22;8008;50.024;8.172;2023-07-29T04:00:03;19.10;99.90
15815;DHT22;8008;50.024;8.172;2023-07-29T04:02:41;19.10;99.90
15815;DHT22;8008;50.024;8.172;2023-07-29T04:05:10;19.10;99.90
15815;DHT22;8008;50.024;8.172;2023-07-29T04:07:38;19.10;99.90
15815;DHT22;8008;50.024;8.172;2023-07-29T04:10:15;19.20;99.90
15815;DHT22;8008;50.024;8.172;2023-07-29T04:12:43;19.20;99.90
15815;DHT22;8008;50.024;8.172;2023-07-29T04:15:11;19.20;99.90
15815;DHT22;8008;50.024;8.172;2023-07-29T04:17:39;19.20;99.90
15815;DHT22;8008;50.024;8.172;2023-07-29T04:20:08;19.20;99.90
15815;DHT22;8008;50.024;8.172;2023-07-29T04:22:36;19.20;99.90
15815;DHT22;8008;50.024;8.172;2023-07-29T04:25:05;19.20;99.90
15815;DHT22;8008;50.024;8.172;2023-07-29T04:27:34;19.30;99.90
15815;DHT22;8008;50.024;8.172;2023-07-29T04:30:03;19.20;99.90
15815;DHT22;8008;50.024;8.172;2023-07-29T04:32:31;19.20;99.90
15815;DHT22;8008;50.024;8.172;2023-07-29T04:34:59;19.30;99.90
15815;DHT22;8008;50.024;8.172;2023-07-29T04:37:27;19.30;99.90
15815;DHT22;8008;50.024;8.172;2023-07-29T04:39:55;19.30;99.90
15815;DHT22;8008;50.024;8.172;2023-07-29T04:42:23;19.20;99.90
15815;DHT22;8008;50.024;8.172;2023-07-29T04:44:52;19.20;99.90
15815;DHT22;8008;50.024;8.172;2023-07-29T04:47:20;19.10;99.90
15815;DHT22;8008;50.024;8.172;2023-07-29T04:49:50;19.10;99.90
15815;DHT22;8008;50.024;8.172;2023-07-29T04:52:18;19.10;99.90
15815;DHT22;8008;50.024;8.172;2023-07-29T04:54:46;19.20;99.90
15815;DHT22;8008;50.024;8.172;2023-07-29T04:57:14;19.20;99.90
15815;DHT22;8008;50.024;8.172;2023-07-29T04:59:42;19.10;99.90
15815;DHT22;8008;50.024;8.172;2023-07-29T05:02:11;19.10;99.90
15815;DHT22;8008;50.024;8.172;2023-07-29T05:04:39;19.20;99.90
15815;DHT22;8008;50.024;8.172;2023-07-29T05:07:09;19.10;99.90
15815;DHT22;8008;50.024;8.172;2023-07-29T05:09:37;19.20;99.90
15815;DHT22;8008;50.024;8.172;2023-07-29T05:12:06;19.00;99.90
15815;DHT22;8008;50.024;8.172;2023-07-29T05:14:34;19.20;99.90
15815;DHT22;8008;50.024;8.172;2023-07-29T05:17:02;19.20;99.90
15815;DHT22;8008;50.024;8.172;2023-07-29T05:19:31;19.10;99.90
15815;DHT22;8008;50.024;8.172;2023-07-29T05:21:59;19.20;99.90
15815;DHT22;8008;50.024;8.172;2023-07-29T05:24:27;19.20;99.90
15815;DHT22;8008;50.024;8.172;2023-07-29T05:26:55;19.10;99.90
15815;DHT22;8008;50.024;8.172;2023-07-29T05:29:23;19.10;99.90
15815;DHT22;8008;50.024;8.172;2023-07-29T05:31:51;19.10;99.90
15815;DHT22;8008;50.024;8.172;2023-07-29T05:34:19;19.20;99.90
15815;DHT22;8008;50.024;8.172;2023-07-29T05:36:49;19.20;99.90
15815;DHT22;8008;50.024;8.172;2023-07-29T05:39:17;19.30;99.90
15815;DHT22;8008;50.024;8.172;2023-07-29T05:41:45;19.30;99.90
15815;DHT22;8008;50.024;8.172;2023-07-29T05:44:14;19.30;99.90
15815;DHT22;8008;50.024;8.172;2023-07-29T05:46:42;19.30;99.90
15815;DHT22;8008;50.024;8.172;2023-07-29T05:49:10;19.20;99.90
15815;DHT22;8008;50.024;8.172;2023-07-29T05:51:40;19.20;99.90
15815;DHT22;8008;50.024;8.172;2023-07-29T05:54:10;19.10;99.90
15815;DHT22;8008;50.024;8.172;2023-07-29T05:56:38;19.00;99.90
15815;DHT22;8008;50.024;8.172;2023-07-29T05:59:08;18.90;99.90
15815;DHT22;8008;50.024;8.172;2023-07-29T06:01:36;18.90;99.90
15815;DHT22;8008;50.024;8.172;2023-07-29T06:04:05;18.90;99.90
15815;DHT22;8008;50.024;8.172;2023-07-29T06:06:34;18.90;99.90
15815;DHT22;8008;50.024;8.172;2023-07-29T06:09:02;18.80;99.90
15815;DHT22;8008;50.024;8.172;2023-07-29T06:11:34;18.80;99.90
15815;DHT22;8008;50.024;8.172;2023-07-29T06:14:02;18.80;99.90
15815;DHT22;8008;50.024;8.172;2023-07-29T06:16:29;18.70;99.90
15815;DHT22;8008;50.024;8.172;2023-07-29T06:18:58;18.70;99.90
15815;DHT22;8008;50.024;8.172;2023-07-29T06:21:25;18.80;99.90
15815;DHT22;8008;50.024;8.172;2023-07-29T06:23:53;18.80;99.90
15815;DHT22;8008;50.024;8.172;2023-07-29T06:26:23;18.80;99.90
15815;DHT22;8008;50.024;8.172;2023-07-29T06:28:52;18.90;99.90
15815;DHT22;8008;50.024;8.172;2023-07-29T06:31:20;19.00;99.90
15815;DHT22;8008;50.024;8.172;2023-07-29T06:33:48;19.00;99.90
15815;DHT22;8008;50.024;8.172;2023-07-29T06:36:16;19.00;99.90
15815;DHT22;8008;50.024;8.172;2023-07-29T06:38:44;18.90;99.90
15815;DHT22;8008;50.024;8.172;2023-07-29T06:41:12;18.90;99.90
15815;DHT22;8008;50.024;8.172;2023-07-29T06:43:42;19.00;99.90
15815;DHT22;8008;50.024;8.172;2023-07-29T06:46:11;19.00;99.90
15815;DHT22;8008;50.024;8.172;2023-07-29T06:48:39;19.00;99.90
15815;DHT22;8008;50.024;8.172;2023-07-29T06:51:07;19.00;99.90
15815;DHT22;8008;50.024;8.172;2023-07-29T06:53:35;19.00;99.90
15815;DHT22;8008;50.024;8.172;2023-07-29T06:56:03;19.10;99.90
15815;DHT22;8008;50.024;8.172;2023-07-29T06:58:32;19.10;99.90
15815;DHT22;8008;50.024;8.172;2023-07-29T07:01:00;19.20;99.90
15815;DHT22;8008;50.024;8.172;2023-07-29T07:03:29;19.20;99.90
15815;DHT22;8008;50.024;8.172;2023-07-29T07:05:57;19.10;99.90
15815;DHT22;8008;50.024;8.172;2023-07-29T07:08:25;19.10;99.90
15815;DHT22;8008;50.024;8.172;2023-07-29T07:10:53;19.10;99.90
15815;DHT22;8008;50.024;8.172;2023-07-29T07:13:21;19.10;99.90
15815;DHT22;8008;50.024;8.172;2023-07-29T07:15:49;19.10;99.90
15815;DHT22;8008;50.024;8.172;2023-07-29T07:18:17;19.00;99.90
15815;DHT22;8008;50.024;8.172;2023-07-29T07:20:49;19.00;99.90
15815;DHT22;8008;50.024;8.172;2023-07-29T07:23:18;19.00;99.90
15815;DHT22;8008;50.024;8.172;2023-07-29T07:25:46;19.00;99.90
15815;DHT22;8008;50.024;8.172;2023-07-29T07:28:14;19.00;99.90
15815;DHT22;8008;50.024;8.172;2023-07-29T07:30:42;19.00;99.90
15815;DHT22;8008;50.024;8.172;2023-07-29T07:33:10;19.10;99.90
15815;DHT22;8008;50.024;8.172;2023-07-29T07:35:38;19.20;99.90
15815;DHT22;8008;50.024;8.172;2023-07-29T07:38:07;19.30;99.90
15815;DHT22;8008;50.024;8.172;2023-07-29T07:40:36;19.30;99.90
15815;DHT22;8008;50.024;8.172;2023-07-29T07:43:04;19.30;99.90
15815;DHT22;8008;50.024;8.172;2023-07-29T07:45:32;19.30;99.90
15815;DHT22;8008;50.024;8.172;2023-07-29T07:48:00;19.30;99.90
15815;DHT22;8008;50.024;8.172;2023-07-29T07:50:29;19.30;99.90
15815;DHT22;8008;50.024;8.172;2023-07-29T07:52:57;19.40;99.90
15815;DHT22;8008;50.024;8.172;2023-07-29T07:55:27;19.50;99.90
15815;DHT22;8008;50.024;8.172;2023-07-29T07:57:55;19.60;99.90
15815;DHT22;8008;50.024;8.172;2023-07-29T08:00:23;19.80;99.90
15815;DHT22;8008;50.024;8.172;2023-07-29T08:02:50;19.80;99.90
15815;DHT22;8008;50.024;8.172;2023-07-29T08:05:19;19.90;99.90
15815;DHT22;8008;50.024;8.172;2023-07-29T08:07:47;20.10;99.90
15815;DHT22;8008;50.024;8.172;2023-07-29T08:10:15;20.30;99.90
15815;DHT22;8008;50.024;8.172;2023-07-29T08:12:44;20.40;99.90
15815;DHT22;8008;50.024;8.172;2023-07-29T08:15:12;20.50;99.90
15815;DHT22;8008;50.024;8.172;2023-07-29T08:17:40;20.50;99.90
15815;DHT22;8008;50.024;8.172;2023-07-29T08:20:08;20.50;99.90
15815;DHT22;8008;50.024;8.172;2023-07-29T08:22:37;20.40;99.90
15815;DHT22;8008;50.024;8.172;2023-07-29T08:25:05;20.40;99.90
15815;DHT22;8008;50.024;8.172;2023-07-29T08:27:33;20.40;99.90
15815;DHT22;8008;50.024;8.172;2023-07-29T08:30:03;20.40;99.90
15815;DHT22;8008;50.024;8.172;2023-07-29T08:32:31;20.60;99.90
15815;DHT22;8008;50.024;8.172;2023-07-29T08:34:59;20.80;99.90
15815;DHT22;8008;50.024;8.172;2023-07-29T08:37:27;20.90;99.90
15815;DHT22;8008;50.024;8.172;2023-07-29T08:39:56;21.10;99.90
15815;DHT22;8008;50.024;8.172;2023-07-29T08:42:29;21.10;99.90
15815;DHT22;8008;50.024;8.172;2023-07-29T08:44:59;21.20;99.90
15815;DHT22;8008;50.024;8.172;2023-07-29T08:47:30;21.30;99.90
15815;DHT22;8008;50.024;8.172;2023-07-29T08:49:59;21.30;99.90
15815;DHT22;8008;50.024;8.172;2023-07-29T08:52:29;21.30;99.90
15815;DHT22;8008;50.024;8.172;2023-07-29T08:54:59;21.50;99.90
15815;DHT22;8008;50.024;8.172;2023-07-29T08:57:28;21.40;99.90
15815;DHT22;8008;50.024;8.172;2023-07-29T08:59:56;21.40;99.90
15815;DHT22;8008;50.024;8.172;2023-07-29T09:02:25;21.30;99.90
15815;DHT22;8008;50.024;8.172;2023-07-29T09:04:55;21.30;99.90
15815;DHT22;8008;50.024;8.172;2023-07-29T09:07:22;21.40;99.90
15815;DHT22;8008;50.024;8.172;2023-07-29T09:09:51;21.40;99.90
15815;DHT22;8008;50.024;8.172;2023-07-29T09:12:19;21.50;99.90
15815;DHT22;8008;50.024;8.172;2023-07-29T09:14:51;21.60;99.90
15815;DHT22;8008;50.024;8.172;2023-07-29T09:17:20;21.70;99.90
15815;DHT22;8008;50.024;8.172;2023-07-29T09:19:48;21.80;99.90
15815;DHT22;8008;50.024;8.172;2023-07-29T09:22:21;22.00;99.90
15815;DHT22;8008;50.024;8.172;2023-07-29T09:24:48;22.00;99.90
15815;DHT22;8008;50.024;8.172;2023-07-29T09:27:24;22.00;99.90
15815;DHT22;8008;50.024;8.172;2023-07-29T09:29:52;22.00;99.90
15815;DHT22;8008;50.024;8.172;2023-07-29T09:32:21;22.00;99.90
15815;DHT22;8008;50.024;8.172;2023-07-29T09:34:49;22.00;99.90
15815;DHT22;8008;50.024;8.172;2023-07-29T09:37:18;21.90;99.90
15815;DHT22;8008;50.024;8.172;2023-07-29T09:39:50;22.00;99.90
15815;DHT22;8008;50.024;8.172;2023-07-29T09:42:18;22.00;99.90
15815;DHT22;8008;50.024;8.172;2023-07-29T09:44:49;22.00;99.90
15815;DHT22;8008;50.024;8.172;2023-07-29T09:47:21;22.00;99.90
15815;DHT22;8008;50.024;8.172;2023-07-29T09:49:49;22.00;99.90
15815;DHT22;8008;50.024;8.172;2023-07-29T09:52:18;22.10;99.90
15815;DHT22;8008;50.024;8.172;2023-07-29T09:54:46;22.10;99.90
15815;DHT22;8008;50.024;8.172;2023-07-29T09:57:18;22.20;99.90
15815;DHT22;8008;50.024;8.172;2023-07-29T09:59:53;22.40;99.90
15815;DHT22;8008;50.024;8.172;2023-07-29T10:02:22;22.40;99.90
15815;DHT22;8008;50.024;8.172;2023-07-29T10:04:52;22.60;99.90
15815;DHT22;8008;50.024;8.172;2023-07-29T10:07:21;22.70;99.90
15815;DHT22;8008;50.024;8.172;2023-07-29T10:09:51;22.70;99.90
15815;DHT22;8008;50.024;8.172;2023-07-29T10:12:21;22.60;99.90
15815;DHT22;8008;50.024;8.172;2023-07-29T10:14:50;22.50;99.90
15815;DHT22;8008;50.024;8.172;2023-07-29T10:17:19;22.60;99.90
15815;DHT22;8008;50.024;8.172;2023-07-29T10:19:49;22.70;99.90
15815;DHT22;8008;50.024;8.172;2023-07-29T10:22:20;22.70;99.90
15815;DHT22;8008;50.024;8.172;2023-07-29T10:24:49;22.50;99.90
15815;DHT22;8008;50.024;8.172;2023-07-29T10:27:20;22.50;99.90
15815;DHT22;8008;50.024;8.172;2023-07-29T10:29:50;22.70;99.90
15815;DHT22;8008;50.024;8.172;2023-07-29T10:32:22;22.70;99.90
15815;DHT22;8008;50.024;8.172;2023-07-29T10:34:52;22.70;99.90
15815;DHT22;8008;50.024;8.172;2023-07-29T10:37:22;22.60;99.90
15815;DHT22;8008;50.024;8.172;2023-07-29T10:39:54;22.60;99.90
15815;DHT22;8008;50.024;8.172;2023-07-29T10:42:23;22.40;99.90
15815;DHT22;8008;50.024;8.172;2023-07-29T10:44:52;22.40;99.90
15815;DHT22;8008;50.024;8.172;2023-07-29T10:47:22;22.40;99.90
15815;DHT22;8008;50.024;8.172;2023-07-29T10:49:53;22.70;99.90
15815;DHT22;8008;50.024;8.172;2023-07-29T10:52:39;23.10;99.90
15815;DHT22;8008;50.024;8.172;2023-07-29T10:55:27;23.50;99.90
15815;DHT22;8008;50.024;8.172;2023-07-29T10:58:13;24.00;99.90
15815;DHT22;8008;50.024;8.172;2023-07-29T11:00:42;24.30;99.90
15815;DHT22;8008;50.024;8.172;2023-07-29T11:03:12;24.60;99.90
15815;DHT22;8008;50.024;8.172;2023-07-29T11:05:43;24.70;99.90
15815;DHT22;8008;50.024;8.172;2023-07-29T11:08:22;24.60;99.90
15815;DHT22;8008;50.024;8.172;2023-07-29T11:11:04;24.90;99.90
15815;DHT22;8008;50.024;8.172;2023-07-29T11:13:35;24.80;99.90
15815;DHT22;8008;50.024;8.172;2023-07-29T11:16:04;25.00;99.90
15815;DHT22;8008;50.024;8.172;2023-07-29T11:18:34;25.30;99.90
15815;DHT22;8008;50.024;8.172;2023-07-29T11:21:03;25.70;99.90
15815;DHT22;8008;50.024;8.172;2023-07-29T11:23:32;26.00;99.90
15815;DHT22;8008;50.024;8.172;2023-07-29T11:26:02;26.30;99.90
15815;DHT22;8008;50.024;8.172;2023-07-29T11:28:30;26.40;99.90
15815;DHT22;8008;50.024;8.172;2023-07-29T11:31:00;26.10;99.90
15815;DHT22;8008;50.024;8.172;2023-07-29T11:33:28;26.00;99.90
15815;DHT22;8008;50.024;8.172;2023-07-29T11:35:56;26.20;99.90
15815;DHT22;8008;50.024;8.172;2023-07-29T11:38:24;26.10;99.90
15815;DHT22;8008;50.024;8.172;2023-07-29T11:40:55;25.70;99.90
15815;DHT22;8008;50.024;8.172;2023-07-29T11:43:24;25.40;99.90
15815;DHT22;8008;50.024;8.172;2023-07-29T11:45:53;25.20;99.90
15815;DHT22;8008;50.024;8.172;2023-07-29T11:48:28;25.00;99.90
15815;DHT22;8008;50.024;8.172;2023-07-29T11:50:56;24.60;99.90
15815;DHT22;8008;50.024;8.172;2023-07-29T11:53:27;24.60;99.90
15815;DHT22;8008;50.024;8.172;2023-07-29T11:55:56;25.00;99.90
15815;DHT22;8008;50.024;8.172;2023-07-29T11:58:24;25.40;99.90
15815;DHT22;8008;50.024;8.172;2023-07-29T12:00:53;25.70;99.90
15815;DHT22;8008;50.024;8.172;2023-07-29T12:03:22;26.00;99.90
15815;DHT22;8008;50.024;8.172;2023-07-29T12:05:52;26.30;99.90
15815;DHT22;8008;50.024;8.172;2023-07-29T12:08:20;26.50;99.90
15815;DHT22;8008;50.024;8.172;2023-07-29T12:10:48;26.90;99.90
15815;DHT22;8008;50.024;8.172;2023-07-29T12:13:16;26.80;99.90
15815;DHT22;8008;50.024;8.172;2023-07-29T12:15:44;27.10;99.90
15815;DHT22;8008;50.024;8.172;2023-07-29T12:18:12;27.10;99.90
15815;DHT22;8008;50.024;8.172;2023-07-29T12:20:41;26.80;99.90
15815;DHT22;8008;50.024;8.172;2023-07-29T12:23:11;26.80;99.90
15815;DHT22;8008;50.024;8.172;2023-07-29T12:25:39;26.40;99.90
15815;DHT22;8008;50.024;8.172;2023-07-29T12:28:07;26.30;99.90
15815;DHT22;8008;50.024;8.172;2023-07-29T12:30:41;26.30;99.90
15815;DHT22;8008;50.024;8.172;2023-07-29T12:33:09;26.20;99.90
15815;DHT22;8008;50.024;8.172;2023-07-29T12:35:37;26.00;99.90
15815;DHT22;8008;50.024;8.172;2023-07-29T12:38:05;25.90;99.90
15815;DHT22;8008;50.024;8.172;2023-07-29T12:40:38;25.60;99.90
15815;DHT22;8008;50.024;8.172;2023-07-29T12:43:06;25.60;99.90
15815;DHT22;8008;50.024;8.172;2023-07-29T12:45:36;25.30;99.20
15815;DHT22;8008;50.024;8.172;2023-07-29T12:48:06;25.20;99.50
15815;DHT22;8008;50.024;8.172;2023-07-29T12:50:34;25.20;99.90
15815;DHT22;8008;50.024;8.172;2023-07-29T12:53:02;25.40;99.90
15815;DHT22;8008;50.024;8.172;2023-07-29T12:55:30;25.50;99.90
15815;DHT22;8008;50.024;8.172;2023-07-29T12:57:59;25.50;99.90
15815;DHT22;8008;50.024;8.172;2023-07-29T13:00:27;25.50;99.90
15815;DHT22;8008;50.024;8.172;2023-07-29T13:02:55;25.40;99.90
15815;DHT22;8008;50.024;8.172;2023-07-29T13:05:24;25.30;99.90
15815;DHT22;8008;50.024;8.172;2023-07-29T13:07:52;25.20;99.90
15815;DHT22;8008;50.024;8.172;2023-07-29T13:10:20;25.10;99.90
15815;DHT22;8008;50.024;8.172;2023-07-29T13:12:48;25.10;99.90
15815;DHT22;8008;50.024;8.172;2023-07-29T13:15:17;25.10;99.90
15815;DHT22;8008;50.024;8.172;2023-07-29T13:17:45;26.50;99.90
15815;DHT22;8008;50.024;8.172;2023-07-29T13:20:13;27.60;99.90
15815;DHT22;8008;50.024;8.172;2023-07-29T13:22:41;27.10;99.90
15815;DHT22;8008;50.024;8.172;2023-07-29T13:25:09;26.70;99.80
15815;DHT22;8008;50.024;8.172;2023-07-29T13:27:37;26.50;99.90
15815;DHT22;8008;50.024;8.172;2023-07-29T13:30:06;27.40;99.90
15815;DHT22;8008;50.024;8.172;2023-07-29T13:32:36;28.80;98.90
15815;DHT22;8008;50.024;8.172;2023-07-29T13:35:04;29.30;95.70
15815;DHT22;8008;50.024;8.172;2023-07-29T13:37:33;29.40;94.80
15815;DHT22;8008;50.024;8.172;2023-07-29T13:40:01;29.80;94.70
15815;DHT22;8008;50.024;8.172;2023-07-29T13:42:29;30.70;94.30
15815;DHT22;8008;50.024;8.172;2023-07-29T13:44:57;31.60;91.80
15815;DHT22;8008;50.024;8.172;2023-07-29T13:47:25;31.50;90.60
15815;DHT22;8008;50.024;8.172;2023-07-29T13:49:54;30.90;91.00
15815;DHT22;8008;50.024;8.172;2023-07-29T13:52:22;31.50;90.30
15815;DHT22;8008;50.024;8.172;2023-07-29T13:54:50;32.70;88.00
15815;DHT22;8008;50.024;8.172;2023-07-29T13:57:18;33.70;86.20
15815;DHT22;8008;50.024;8.172;2023-07-29T13:59:46;34.10;79.90
15815;DHT22;8008;50.024;8.172;2023-07-29T14:02:14;34.20;78.10
15815;DHT22;8008;50.024;8.172;2023-07-29T14:04:42;34.40;77.10
15815;DHT22;8008;50.024;8.172;2023-07-29T14:07:11;33.60;73.80
15815;DHT22;8008;50.024;8.172;2023-07-29T14:09:39;33.10;71.70
15815;DHT22;8008;50.024;8.172;2023-07-29T14:12:09;31.90;71.80
15815;DHT22;8008;50.024;8.172;2023-07-29T14:14:39;32.90;74.40
15815;DHT22;8008;50.024;8.172;2023-07-29T14:17:07;33.90;73.40
15815;DHT22;8008;50.024;8.172;2023-07-29T14:19:35;34.40;73.20
15815;DHT22;8008;50.024;8.172;2023-07-29T14:22:03;34.40;70.90
15815;DHT22;8008;50.024;8.172;2023-07-29T14:24:32;33.40;70.10
15815;DHT22;8008;50.024;8.172;2023-07-29T14:27:00;31.20;72.60
15815;DHT22;8008;50.024;8.172;2023-07-29T14:29:29;29.90;74.40
15815;DHT22;8008;50.024;8.172;2023-07-29T14:31:57;28.90;76.80
15815;DHT22;8008;50.024;8.172;2023-07-29T14:34:25;29.20;80.20
15815;DHT22;8008;50.024;8.172;2023-07-29T14:36:53;29.40;76.90
15815;DHT22;8008;50.024;8.172;2023-07-29T14:39:21;29.70;76.10
15815;DHT22;8008;50.024;8.172;2023-07-29T14:41:50;30.20;76.70
15815;DHT22;8008;50.024;8.172;2023-07-29T14:44:18;30.60;73.10
15815;DHT22;8008;50.024;8.172;2023-07-29T14:46:46;30.80;72.90
15815;DHT22;8008;50.024;8.172;2023-07-29T14:49:14;30.80;71.00
15815;DHT22;8008;50.024;8.172;2023-07-29T14:51:42;31.10;72.40
15815;DHT22;8008;50.024;8.172;2023-07-29T14:54:10;30.30;70.90
15815;DHT22;8008;50.024;8.172;2023-07-29T14:56:38;30.10;71.80
15815;DHT22;8008;50.024;8.172;2023-07-29T14:59:07;31.00;72.10
15815;DHT22;8008;50.024;8.172;2023-07-29T15:01:35;31.20;70.00
15815;DHT22;8008;50.024;8.172;2023-07-29T15:04:03;31.40;71.40
15815;DHT22;8008;50.024;8.172;2023-07-29T15:06:31;31.50;69.10
15815;DHT22;8008;50.024;8.172;2023-07-29T15:09:00;32.00;69.60
15815;DHT22;8008;50.024;8.172;2023-07-29T15:11:27;32.30;67.90
15815;DHT22;8008;50.024;8.172;2023-07-29T15:13:55;31.30;68.10
15815;DHT22;8008;50.024;8.172;2023-07-29T15:16:25;30.50;69.70
15815;DHT22;8008;50.024;8.172;2023-07-29T15:18:53;29.80;68.90
15815;DHT22;8008;50.024;8.172;2023-07-29T15:21:21;30.80;70.70
15815;DHT22;8008;50.024;8.172;2023-07-29T15:23:49;31.70;65.80
15815;DHT22;8008;50.024;8.172;2023-07-29T15:26:16;31.10;64.30
15815;DHT22;8008;50.024;8.172;2023-07-29T15:28:44;30.00;66.60
15815;DHT22;8008;50.024;8.172;2023-07-29T15:31:13;29.50;68.40
15815;DHT22;8008;50.024;8.172;2023-07-29T15:33:42;28.90;69.40
15815;DHT22;8008;50.024;8.172;2023-07-29T15:36:10;28.50;69.50
15815;DHT22;8008;50.024;8.172;2023-07-29T15:38:39;28.30;70.40
15815;DHT22;8008;50.024;8.172;2023-07-29T15:41:07;29.10;70.50
15815;DHT22;8008;50.024;8.172;2023-07-29T15:43:35;28.80;70.40
15815;DHT22;8008;50.024;8.172;2023-07-29T15:46:03;28.40;71.30
15815;DHT22;8008;50.024;8.172;2023-07-29T15:48:31;28.20;72.20
15815;DHT22;8008;50.024;8.172;2023-07-29T15:51:00;27.80;72.60
15815;DHT22;8008;50.024;8.172;2023-07-29T15:53:28;27.50;73.30
15815;DHT22;8008;50.024;8.172;2023-07-29T15:55:56;27.40;73.70
15815;DHT22;8008;50.024;8.172;2023-07-29T15:58:24;27.30;74.30
15815;DHT22;8008;50.024;8.172;2023-07-29T16:00:52;27.50;74.70
15815;DHT22;8008;50.024;8.172;2023-07-29T16:03:20;27.50;73.70
15815;DHT22;8008;50.024;8.172;2023-07-29T16:05:49;27.50;74.50
15815;DHT22;8008;50.024;8.172;2023-07-29T16:08:18;27.50;74.70
15815;DHT22;8008;50.024;8.172;2023-07-29T16:10:46;27.50;74.40
15815;DHT22;8008;50.024;8.172;2023-07-29T16:13:14;27.40;74.40
15815;DHT22;8008;50.024;8.172;2023-07-29T16:15:44;27.20;74.80
15815;DHT22;8008;50.024;8.172;2023-07-29T16:18:12;27.10;75.00
15815;DHT22;8008;50.024;8.172;2023-07-29T16:20:40;26.90;76.00
15815;DHT22;8008;50.024;8.172;2023-07-29T16:23:08;26.80;77.50
15815;DHT22;8008;50.024;8.172;2023-07-29T16:25:38;26.90;76.30
15815;DHT22;8008;50.024;8.172;2023-07-29T16:28:06;26.90;76.70
15815;DHT22;8008;50.024;8.172;2023-07-29T16:30:34;26.90;76.60
15815;DHT22;8008;50.024;8.172;2023-07-29T16:33:02;26.90;77.20
15815;DHT22;8008;50.024;8.172;2023-07-29T16:35:30;26.80;76.80
15815;DHT22;8008;50.024;8.172;2023-07-29T16:37:58;26.80;78.10
15815;DHT22;8008;50.024;8.172;2023-07-29T16:40:27;26.90;78.90
15815;DHT22;8008;50.024;8.172;2023-07-29T16:42:56;26.90;77.40
15815;DHT22;8008;50.024;8.172;2023-07-29T16:45:24;26.90;78.30
15815;DHT22;8008;50.024;8.172;2023-07-29T16:47:54;27.00;78.20
15815;DHT22;8008;50.024;8.172;2023-07-29T16:50:22;27.00;78.00
15815;DHT22;8008;50.024;8.172;2023-07-29T16:52:50;26.90;78.50
15815;DHT22;8008;50.024;8.172;2023-07-29T16:55:20;26.90;78.00
15815;DHT22;8008;50.024;8.172;2023-07-29T16:57:48;26.80;77.20
15815;DHT22;8008;50.024;8.172;2023-07-29T17:00:17;26.60;77.40
15815;DHT22;8008;50.024;8.172;2023-07-29T17:02:45;26.60;79.00
15815;DHT22;8008;50.024;8.172;2023-07-29T17:05:13;26.50;77.00
15815;DHT22;8008;50.024;8.172;2023-07-29T17:07:41;26.50;77.80
15815;DHT22;8008;50.024;8.172;2023-07-29T17:10:09;26.30;77.90
15815;DHT22;8008;50.024;8.172;2023-07-29T17:12:37;26.20;76.00
15815;DHT22;8008;50.024;8.172;2023-07-29T17:15:06;26.20;75.60
15815;DHT22;8008;50.024;8.172;2023-07-29T17:17:36;26.20;75.30
15815;DHT22;8008;50.024;8.172;2023-07-29T17:20:06;26.30;75.40
15815;DHT22;8008;50.024;8.172;2023-07-29T17:22:35;26.40;75.30
15815;DHT22;8008;50.024;8.172;2023-07-29T17:25:04;26.30;74.20
15815;DHT22;8008;50.024;8.172;2023-07-29T17:27:32;26.20;74.80
15815;DHT22;8008;50.024;8.172;2023-07-29T17:30:00;26.20;75.90
15815;DHT22;8008;50.024;8.172;2023-07-29T17:32:28;25.90;75.20
15815;DHT22;8008;50.024;8.172;2023-07-29T17:34:58;25.90;76.40
15815;DHT22;8008;50.024;8.172;2023-07-29T17:37:26;25.80;76.90
15815;DHT22;8008;50.024;8.172;2023-07-29T17:39:54;25.80;77.80
15815;DHT22;8008;50.024;8.172;2023-07-29T17:42:22;25.70;77.40
15815;DHT22;8008;50.024;8.172;2023-07-29T17:44:50;25.60;77.90
15815;DHT22;8008;50.024;8.172;2023-07-29T17:47:18;25.50;78.80
15815;DHT22;8008;50.024;8.172;2023-07-29T17:49:46;25.50;78.50
15815;DHT22;8008;50.024;8.172;2023-07-29T17:52:15;25.40;79.80
15815;DHT22;8008;50.024;8.172;2023-07-29T17:54:43;25.30;79.90
15815;DHT22;8008;50.024;8.172;2023-07-29T17:57:11;25.30;80.80
15815;DHT22;8008;50.024;8.172;2023-07-29T17:59:39;25.20;81.20
15815;DHT22;8008;50.024;8.172;2023-07-29T18:02:07;25.10;81.00
15815;DHT22;8008;50.024;8.172;2023-07-29T18:04:35;25.20;81.20
15815;DHT22;8008;50.024;8.172;2023-07-29T18:07:03;25.10;82.20
15815;DHT22;8008;50.024;8.172;2023-07-29T18:09:33;25.10;82.50
15815;DHT22;8008;50.024;8.172;2023-07-29T18:12:01;25.00;82.90
15815;DHT22;8008;50.024;8.172;2023-07-29T18:14:29;24.90;83.70
15815;DHT22;8008;50.024;8.172;2023-07-29T18:16:57;24.80;85.30
15815;DHT22;8008;50.024;8.172;2023-07-29T18:19:25;24.70;84.50
15815;DHT22;8008;50.024;8.172;2023-07-29T18:21:57;24.70;84.80
15815;DHT22;8008;50.024;8.172;2023-07-29T18:24:25;24.70;85.90
15815;DHT22;8008;50.024;8.172;2023-07-29T18:26:54;24.60;86.20
15815;DHT22;8008;50.024;8.172;2023-07-29T18:29:22;24.50;86.40
15815;DHT22;8008;50.024;8.172;2023-07-29T18:31:50;24.50;87.30
15815;DHT22;8008;50.024;8.172;2023-07-29T18:34:18;24.40;86.10
15815;DHT22;8008;50.024;8.172;2023-07-29T18:36:48;24.30;86.70
15815;DHT22;8008;50.024;8.172;2023-07-29T18:39:15;24.20;87.00
15815;DHT22;8008;50.024;8.172;2023-07-29T18:41:43;24.20;88.10
15815;DHT22;8008;50.024;8.172;2023-07-29T18:44:13;24.10;88.90
15815;DHT22;8008;50.024;8.172;2023-07-29T18:46:41;24.10;89.80
15815;DHT22;8008;50.024;8.172;2023-07-29T18:49:09;24.10;90.30
15815;DHT22;8008;50.024;8.172;2023-07-29T18:51:37;24.10;90.20
15815;DHT22;8008;50.024;8.172;2023-07-29T18:54:06;24.00;90.70
15815;DHT22;8008;50.024;8.172;2023-07-29T18:56:34;24.00;91.00